sensor_id;sensor_type;location;lat;lon;timestamp;P1;durP1;ratioP1;P2;durP2;ratioP2
69310;SDS011;56430;48.154;16.458;2023-11-19T00:00:07;12.88;;;4.57;;
69310;SDS011;56430;48.154;16.458;2023-11-19T00:02:38;14.50;;;4.47;;
69310;SDS011;56430;48.154;16.458;2023-11-19T00:05:06;12.13;;;4.35;;
69310;SDS011;56430;48.154;16.458;2023-11-19T00:07:34;13.00;;;4.40;;
69310;SDS011;56430;48.154;16.458;2023-11-19T00:10:02;15.05;;;4.50;;
69310;SDS011;56430;48.154;16.458;2023-11-19T00:12:36;13.68;;;4.28;;
69310;SDS011;56430;48.154;16.458;2023-11-19T00:15:04;10.13;;;4.00;;
69310;SDS011;56430;48.154;16.458;2023-11-19T00:17:34;7.85;;;3.47;;
69310;SDS011;56430;48.154;16.458;2023-11-19T00:20:03;9.98;;;4.10;;
69310;SDS011;56430;48.154;16.458;2023-11-19T00:22:31;9.57;;;3.85;;
69310;SDS011;56430;48.154;16.458;2023-11-19T00:24:59;8.90;;;3.75;;
69310;SDS011;56430;48.154;16.458;2023-11-19T00:27:26;10.93;;;4.10;;
69310;SDS011;56430;48.154;16.458;2023-11-19T00:29:53;9.73;;;4.10;;
69310;SDS011;56430;48.154;16.458;2023-11-19T00:32:20;7.60;;;3.47;;
69310;SDS011;56430;48.154;16.458;2023-11-19T00:34:47;8.85;;;3.67;;
69310;SDS011;56430;48.154;16.458;2023-11-19T00:37:16;9.98;;;3.70;;
69310;SDS011;56430;48.154;16.458;2023-11-19T00:39:43;9.40;;;3.77;;
69310;SDS011;56430;48.154;16.458;2023-11-19T00:42:11;9.57;;;4.00;;
69310;SDS011;56430;48.154;16.458;2023-11-19T00:44:39;9.02;;;3.97;;
69310;SDS011;56430;48.154;16.458;2023-11-19T00:47:07;9.05;;;4.18;;
69310;SDS011;56430;48.154;16.458;2023-11-19T00:49:34;10.77;;;4.13;;
69310;SDS011;56430;48.154;16.458;2023-11-19T00:52:01;9.20;;;3.77;;
69310;SDS011;56430;48.154;16.458;2023-11-19T00:54:30;10.85;;;4.07;;
69310;SDS011;56430;48.154;16.458;2023-11-19T00:56:57;9.23;;;4.40;;
69310;SDS011;56430;48.154;16.458;2023-11-19T00:59:25;10.98;;;4.40;;
69310;SDS011;56430;48.154;16.458;2023-11-19T01:01:52;11.48;;;4.85;;
69310;SDS011;56430;48.154;16.458;2023-11-19T01:04:19;12.33;;;4.13;;
69310;SDS011;56430;48.154;16.458;2023-11-19T01:06:46;8.18;;;3.60;;
69310;SDS011;56430;48.154;16.458;2023-11-19T01:09:13;8.68;;;3.38;;
69310;SDS011;56430;48.154;16.458;2023-11-19T01:11:42;10.43;;;3.60;;
69310;SDS011;56430;48.154;16.458;2023-11-19T01:14:10;10.82;;;3.70;;
69310;SDS011;56430;48.154;16.458;2023-11-19T01:16:37;8.60;;;3.50;;
69310;SDS011;56430;48.154;16.458;2023-11-19T01:19:04;10.00;;;3.50;;
69310;SDS011;56430;48.154;16.458;2023-11-19T01:21:31;8.23;;;3.05;;
69310;SDS011;56430;48.154;16.458;2023-11-19T01:23:58;7.45;;;3.20;;
69310;SDS011;56430;48.154;16.458;2023-11-19T01:26:26;8.93;;;3.80;;
69310;SDS011;56430;48.154;16.458;2023-11-19T01:28:55;8.23;;;3.27;;
69310;SDS011;56430;48.154;16.458;2023-11-19T01:31:22;9.05;;;3.55;;
69310;SDS011;56430;48.154;16.458;2023-11-19T01:33:49;10.98;;;3.95;;
69310;SDS011;56430;48.154;16.458;2023-11-19T01:36:16;7.03;;;3.30;;
69310;SDS011;56430;48.154;16.458;2023-11-19T01:38:43;10.20;;;3.55;;
69310;SDS011;56430;48.154;16.458;2023-11-19T01:41:10;10.87;;;3.70;;
69310;SDS011;56430;48.154;16.458;2023-11-19T01:43:38;8.18;;;3.60;;
69310;SDS011;56430;48.154;16.458;2023-11-19T01:46:08;8.38;;;3.45;;
69310;SDS011;56430;48.154;16.458;2023-11-19T01:48:36;9.35;;;3.45;;
69310;SDS011;56430;48.154;16.458;2023-11-19T01:51:07;10.75;;;3.95;;
69310;SDS011;56430;48.154;16.458;2023-11-19T01:53:35;8.80;;;3.50;;
69310;SDS011;56430;48.154;16.458;2023-11-19T01:56:04;8.23;;;3.15;;
69310;SDS011;56430;48.154;16.458;2023-11-19T01:58:32;8.13;;;3.42;;
69310;SDS011;56430;48.154;16.458;2023-11-19T02:01:00;10.25;;;3.63;;
69310;SDS011;56430;48.154;16.458;2023-11-19T02:03:30;8.52;;;3.60;;
69310;SDS011;56430;48.154;16.458;2023-11-19T02:05:58;9.10;;;3.37;;
69310;SDS011;56430;48.154;16.458;2023-11-19T02:08:25;9.00;;;3.60;;
69310;SDS011;56430;48.154;16.458;2023-11-19T02:10:53;8.98;;;3.60;;
69310;SDS011;56430;48.154;16.458;2023-11-19T02:13:22;7.00;;;3.30;;
69310;SDS011;56430;48.154;16.458;2023-11-19T02:15:50;8.88;;;3.08;;
69310;SDS011;56430;48.154;16.458;2023-11-19T02:18:18;7.90;;;3.20;;
69310;SDS011;56430;48.154;16.458;2023-11-19T02:20:49;8.80;;;3.47;;
69310;SDS011;56430;48.154;16.458;2023-11-19T02:23:17;7.72;;;3.15;;
69310;SDS011;56430;48.154;16.458;2023-11-19T02:25:46;8.68;;;3.58;;
69310;SDS011;56430;48.154;16.458;2023-11-19T02:28:17;7.85;;;3.35;;
69310;SDS011;56430;48.154;16.458;2023-11-19T02:30:44;7.97;;;3.60;;
69310;SDS011;56430;48.154;16.458;2023-11-19T02:33:12;7.78;;;3.25;;
69310;SDS011;56430;48.154;16.458;2023-11-19T02:35:40;9.65;;;3.25;;
69310;SDS011;56430;48.154;16.458;2023-11-19T02:38:08;8.07;;;3.50;;
69310;SDS011;56430;48.154;16.458;2023-11-19T02:40:35;8.30;;;3.47;;
69310;SDS011;56430;48.154;16.458;2023-11-19T02:43:02;8.43;;;2.93;;
69310;SDS011;56430;48.154;16.458;2023-11-19T02:45:32;9.32;;;3.08;;
69310;SDS011;56430;48.154;16.458;2023-11-19T02:47:59;8.48;;;3.35;;
69310;SDS011;56430;48.154;16.458;2023-11-19T02:50:28;8.40;;;3.00;;
69310;SDS011;56430;48.154;16.458;2023-11-19T02:52:55;8.93;;;3.30;;
69310;SDS011;56430;48.154;16.458;2023-11-19T02:55:23;9.40;;;3.23;;
69310;SDS011;56430;48.154;16.458;2023-11-19T02:57:50;8.43;;;3.38;;
69310;SDS011;56430;48.154;16.458;2023-11-19T03:00:19;8.48;;;3.35;;
69310;SDS011;56430;48.154;16.458;2023-11-19T03:02:51;8.13;;;3.50;;
69310;SDS011;56430;48.154;16.458;2023-11-19T03:05:25;7.25;;;3.35;;
69310;SDS011;56430;48.154;16.458;2023-11-19T03:07:52;8.33;;;3.30;;
69310;SDS011;56430;48.154;16.458;2023-11-19T03:10:19;7.65;;;3.40;;
69310;SDS011;56430;48.154;16.458;2023-11-19T03:12:47;8.73;;;3.53;;
69310;SDS011;56430;48.154;16.458;2023-11-19T03:15:14;7.95;;;3.50;;
69310;SDS011;56430;48.154;16.458;2023-11-19T03:17:41;7.93;;;2.92;;
69310;SDS011;56430;48.154;16.458;2023-11-19T03:20:11;7.47;;;3.27;;
69310;SDS011;56430;48.154;16.458;2023-11-19T03:22:41;8.68;;;3.17;;
69310;SDS011;56430;48.154;16.458;2023-11-19T03:25:08;6.88;;;3.08;;
69310;SDS011;56430;48.154;16.458;2023-11-19T03:27:35;8.27;;;3.20;;
69310;SDS011;56430;48.154;16.458;2023-11-19T03:30:04;8.35;;;3.00;;
69310;SDS011;56430;48.154;16.458;2023-11-19T03:32:32;8.07;;;3.00;;
69310;SDS011;56430;48.154;16.458;2023-11-19T03:35:01;10.20;;;3.50;;
69310;SDS011;56430;48.154;16.458;2023-11-19T03:37:31;7.97;;;3.30;;
69310;SDS011;56430;48.154;16.458;2023-11-19T03:39:59;6.20;;;2.90;;
69310;SDS011;56430;48.154;16.458;2023-11-19T03:42:26;7.57;;;3.08;;
69310;SDS011;56430;48.154;16.458;2023-11-19T03:44:53;7.00;;;2.70;;
69310;SDS011;56430;48.154;16.458;2023-11-19T03:47:21;7.05;;;2.60;;
69310;SDS011;56430;48.154;16.458;2023-11-19T03:49:48;5.47;;;2.80;;
69310;SDS011;56430;48.154;16.458;2023-11-19T03:52:15;7.72;;;2.92;;
69310;SDS011;56430;48.154;16.458;2023-11-19T03:54:44;5.97;;;2.40;;
69310;SDS011;56430;48.154;16.458;2023-11-19T03:57:12;6.93;;;2.47;;
69310;SDS011;56430;48.154;16.458;2023-11-19T03:59:39;7.90;;;2.83;;
69310;SDS011;56430;48.154;16.458;2023-11-19T04:02:06;7.32;;;2.58;;
69310;SDS011;56430;48.154;16.458;2023-11-19T04:04:34;5.20;;;2.17;;
69310;SDS011;56430;48.154;16.458;2023-11-19T04:07:01;8.05;;;2.80;;
69310;SDS011;56430;48.154;16.458;2023-11-19T04:09:29;6.60;;;2.97;;
69310;SDS011;56430;48.154;16.458;2023-11-19T04:11:57;5.80;;;2.70;;
69310;SDS011;56430;48.154;16.458;2023-11-19T04:14:26;6.40;;;2.58;;
69310;SDS011;56430;48.154;16.458;2023-11-19T04:16:53;6.10;;;2.65;;
69310;SDS011;56430;48.154;16.458;2023-11-19T04:19:20;6.20;;;3.03;;
69310;SDS011;56430;48.154;16.458;2023-11-19T04:21:47;6.40;;;2.93;;
69310;SDS011;56430;48.154;16.458;2023-11-19T04:24:15;7.50;;;3.60;;
69310;SDS011;56430;48.154;16.458;2023-11-19T04:26:42;7.03;;;3.17;;
69310;SDS011;56430;48.154;16.458;2023-11-19T04:29:12;9.07;;;3.65;;
69310;SDS011;56430;48.154;16.458;2023-11-19T04:31:40;7.78;;;3.60;;
69310;SDS011;56430;48.154;16.458;2023-11-19T04:34:08;9.07;;;3.90;;
69310;SDS011;56430;48.154;16.458;2023-11-19T04:36:35;7.47;;;3.78;;
69310;SDS011;56430;48.154;16.458;2023-11-19T04:39:03;7.35;;;3.25;;
69310;SDS011;56430;48.154;16.458;2023-11-19T04:41:34;7.78;;;3.58;;
69310;SDS011;56430;48.154;16.458;2023-11-19T04:44:01;7.15;;;3.20;;
69310;SDS011;56430;48.154;16.458;2023-11-19T04:46:30;6.90;;;2.93;;
69310;SDS011;56430;48.154;16.458;2023-11-19T04:48:57;9.00;;;3.58;;
69310;SDS011;56430;48.154;16.458;2023-11-19T04:51:24;5.72;;;2.63;;
69310;SDS011;56430;48.154;16.458;2023-11-19T04:53:51;6.28;;;2.75;;
69310;SDS011;56430;48.154;16.458;2023-11-19T04:56:18;6.93;;;3.03;;
69310;SDS011;56430;48.154;16.458;2023-11-19T04:58:48;6.17;;;2.83;;
69310;SDS011;56430;48.154;16.458;2023-11-19T05:01:15;8.43;;;3.28;;
69310;SDS011;56430;48.154;16.458;2023-11-19T05:03:44;8.65;;;3.33;;
69310;SDS011;56430;48.154;16.458;2023-11-19T05:06:12;7.38;;;3.50;;
69310;SDS011;56430;48.154;16.458;2023-11-19T05:08:39;6.18;;;3.00;;
69310;SDS011;56430;48.154;16.458;2023-11-19T05:11:06;7.17;;;2.77;;
69310;SDS011;56430;48.154;16.458;2023-11-19T05:13:33;6.32;;;3.05;;
69310;SDS011;56430;48.154;16.458;2023-11-19T05:16:01;7.60;;;3.40;;
69310;SDS011;56430;48.154;16.458;2023-11-19T05:18:28;7.95;;;3.30;;
69310;SDS011;56430;48.154;16.458;2023-11-19T05:20:56;9.43;;;3.95;;
69310;SDS011;56430;48.154;16.458;2023-11-19T05:23:23;7.03;;;3.43;;
69310;SDS011;56430;48.154;16.458;2023-11-19T05:25:50;8.75;;;3.20;;
69310;SDS011;56430;48.154;16.458;2023-11-19T05:28:18;8.25;;;3.90;;
69310;SDS011;56430;48.154;16.458;2023-11-19T05:30:45;8.20;;;4.00;;
69310;SDS011;56430;48.154;16.458;2023-11-19T05:33:12;7.57;;;3.50;;
69310;SDS011;56430;48.154;16.458;2023-11-19T05:35:39;8.30;;;3.30;;
69310;SDS011;56430;48.154;16.458;2023-11-19T05:38:08;8.02;;;3.60;;
69310;SDS011;56430;48.154;16.458;2023-11-19T05:40:36;8.45;;;4.03;;
69310;SDS011;56430;48.154;16.458;2023-11-19T05:43:04;7.80;;;3.47;;
69310;SDS011;56430;48.154;16.458;2023-11-19T05:45:31;8.98;;;3.85;;
69310;SDS011;56430;48.154;16.458;2023-11-19T05:47:58;7.50;;;3.33;;
69310;SDS011;56430;48.154;16.458;2023-11-19T05:50:26;8.30;;;3.53;;
69310;SDS011;56430;48.154;16.458;2023-11-19T05:52:53;7.97;;;3.53;;
69310;SDS011;56430;48.154;16.458;2023-11-19T05:55:21;9.63;;;3.72;;
69310;SDS011;56430;48.154;16.458;2023-11-19T05:57:50;7.95;;;3.10;;
69310;SDS011;56430;48.154;16.458;2023-11-19T06:00:17;7.97;;;3.23;;
69310;SDS011;56430;48.154;16.458;2023-11-19T06:02:44;8.82;;;4.70;;
69310;SDS011;56430;48.154;16.458;2023-11-19T06:05:12;6.57;;;2.75;;
69310;SDS011;56430;48.154;16.458;2023-11-19T06:07:39;8.57;;;3.60;;
69310;SDS011;56430;48.154;16.458;2023-11-19T06:10:07;8.20;;;3.75;;
69310;SDS011;56430;48.154;16.458;2023-11-19T06:12:36;7.57;;;2.77;;
69310;SDS011;56430;48.154;16.458;2023-11-19T06:15:06;7.10;;;3.50;;
69310;SDS011;56430;48.154;16.458;2023-11-19T06:17:35;5.80;;;2.60;;
69310;SDS011;56430;48.154;16.458;2023-11-19T06:20:03;6.93;;;3.05;;
69310;SDS011;56430;48.154;16.458;2023-11-19T06:22:31;7.43;;;3.08;;
69310;SDS011;56430;48.154;16.458;2023-11-19T06:24:58;9.37;;;2.93;;
69310;SDS011;56430;48.154;16.458;2023-11-19T06:27:25;6.95;;;2.83;;
69310;SDS011;56430;48.154;16.458;2023-11-19T06:29:54;7.65;;;2.97;;
69310;SDS011;56430;48.154;16.458;2023-11-19T06:32:21;8.25;;;3.30;;
69310;SDS011;56430;48.154;16.458;2023-11-19T06:34:48;8.07;;;3.25;;
69310;SDS011;56430;48.154;16.458;2023-11-19T06:37:15;6.67;;;2.67;;
69310;SDS011;56430;48.154;16.458;2023-11-19T06:39:42;7.05;;;3.03;;
69310;SDS011;56430;48.154;16.458;2023-11-19T06:42:10;7.72;;;3.08;;
69310;SDS011;56430;48.154;16.458;2023-11-19T06:44:37;7.80;;;3.00;;
69310;SDS011;56430;48.154;16.458;2023-11-19T06:47:06;7.82;;;2.70;;
69310;SDS011;56430;48.154;16.458;2023-11-19T06:49:33;6.97;;;2.67;;
69310;SDS011;56430;48.154;16.458;2023-11-19T06:52:00;6.43;;;2.78;;
69310;SDS011;56430;48.154;16.458;2023-11-19T06:54:27;9.25;;;3.85;;
69310;SDS011;56430;48.154;16.458;2023-11-19T06:56:55;7.13;;;3.08;;
69310;SDS011;56430;48.154;16.458;2023-11-19T06:59:23;7.20;;;2.92;;
69310;SDS011;56430;48.154;16.458;2023-11-19T07:01:50;7.77;;;3.17;;
69310;SDS011;56430;48.154;16.458;2023-11-19T07:04:18;6.25;;;3.10;;
69310;SDS011;56430;48.154;16.458;2023-11-19T07:06:45;9.48;;;3.15;;
69310;SDS011;56430;48.154;16.458;2023-11-19T07:09:13;6.28;;;3.20;;
69310;SDS011;56430;48.154;16.458;2023-11-19T07:11:41;8.18;;;3.35;;
69310;SDS011;56430;48.154;16.458;2023-11-19T07:14:09;6.97;;;3.43;;
69310;SDS011;56430;48.154;16.458;2023-11-19T07:16:37;8.63;;;3.75;;
69310;SDS011;56430;48.154;16.458;2023-11-19T07:19:04;7.22;;;2.92;;
69310;SDS011;56430;48.154;16.458;2023-11-19T07:21:33;7.55;;;3.17;;
69310;SDS011;56430;48.154;16.458;2023-11-19T07:24:05;7.93;;;3.53;;
69310;SDS011;56430;48.154;16.458;2023-11-19T07:26:32;6.80;;;2.97;;
69310;SDS011;56430;48.154;16.458;2023-11-19T07:29:00;7.85;;;3.40;;
69310;SDS011;56430;48.154;16.458;2023-11-19T07:31:27;7.15;;;3.53;;
69310;SDS011;56430;48.154;16.458;2023-11-19T07:33:54;5.68;;;2.80;;
69310;SDS011;56430;48.154;16.458;2023-11-19T07:36:21;6.43;;;2.95;;
69310;SDS011;56430;48.154;16.458;2023-11-19T07:38:50;7.10;;;3.13;;
69310;SDS011;56430;48.154;16.458;2023-11-19T07:41:17;8.07;;;3.20;;
69310;SDS011;56430;48.154;16.458;2023-11-19T07:43:45;8.63;;;3.65;;
69310;SDS011;56430;48.154;16.458;2023-11-19T07:46:13;8.10;;;3.50;;
69310;SDS011;56430;48.154;16.458;2023-11-19T07:48:40;7.93;;;3.30;;
69310;SDS011;56430;48.154;16.458;2023-11-19T07:51:08;7.70;;;2.67;;
69310;SDS011;56430;48.154;16.458;2023-11-19T07:53:35;7.80;;;2.85;;
69310;SDS011;56430;48.154;16.458;2023-11-19T07:56:05;8.65;;;3.28;;
69310;SDS011;56430;48.154;16.458;2023-11-19T07:58:33;8.13;;;3.10;;
69310;SDS011;56430;48.154;16.458;2023-11-19T08:01:01;8.43;;;2.80;;
69310;SDS011;56430;48.154;16.458;2023-11-19T08:03:28;9.80;;;3.93;;
69310;SDS011;56430;48.154;16.458;2023-11-19T08:05:56;6.88;;;3.03;;
69310;SDS011;56430;48.154;16.458;2023-11-19T08:08:23;7.13;;;2.75;;
69310;SDS011;56430;48.154;16.458;2023-11-19T08:10:50;7.65;;;2.80;;
69310;SDS011;56430;48.154;16.458;2023-11-19T08:13:19;7.20;;;2.67;;
69310;SDS011;56430;48.154;16.458;2023-11-19T08:15:47;8.43;;;2.23;;
69310;SDS011;56430;48.154;16.458;2023-11-19T08:18:14;7.18;;;3.05;;
69310;SDS011;56430;48.154;16.458;2023-11-19T08:20:41;7.15;;;2.70;;
69310;SDS011;56430;48.154;16.458;2023-11-19T08:23:10;6.95;;;3.00;;
69310;SDS011;56430;48.154;16.458;2023-11-19T08:25:38;5.65;;;1.92;;
69310;SDS011;56430;48.154;16.458;2023-11-19T08:28:05;5.67;;;2.40;;
69310;SDS011;56430;48.154;16.458;2023-11-19T08:30:35;5.82;;;2.60;;
69310;SDS011;56430;48.154;16.458;2023-11-19T08:33:02;6.38;;;2.35;;
69310;SDS011;56430;48.154;16.458;2023-11-19T08:35:29;5.43;;;2.80;;
69310;SDS011;56430;48.154;16.458;2023-11-19T08:37:56;6.82;;;2.83;;
69310;SDS011;56430;48.154;16.458;2023-11-19T08:40:24;9.10;;;3.70;;
69310;SDS011;56430;48.154;16.458;2023-11-19T08:42:51;6.75;;;2.72;;
69310;SDS011;56430;48.154;16.458;2023-11-19T08:45:19;5.13;;;2.28;;
69310;SDS011;56430;48.154;16.458;2023-11-19T08:47:47;6.10;;;2.30;;
69310;SDS011;56430;48.154;16.458;2023-11-19T08:50:14;3.90;;;1.88;;
69310;SDS011;56430;48.154;16.458;2023-11-19T08:52:42;5.73;;;2.13;;
69310;SDS011;56430;48.154;16.458;2023-11-19T08:55:09;5.75;;;2.20;;
69310;SDS011;56430;48.154;16.458;2023-11-19T08:57:37;5.03;;;2.10;;
69310;SDS011;56430;48.154;16.458;2023-11-19T09:00:05;5.63;;;2.22;;
69310;SDS011;56430;48.154;16.458;2023-11-19T09:02:33;5.80;;;2.38;;
69310;SDS011;56430;48.154;16.458;2023-11-19T09:05:02;5.20;;;2.07;;
69310;SDS011;56430;48.154;16.458;2023-11-19T09:07:29;6.65;;;1.63;;
69310;SDS011;56430;48.154;16.458;2023-11-19T09:09:56;5.75;;;2.10;;
69310;SDS011;56430;48.154;16.458;2023-11-19T09:12:23;4.90;;;2.00;;
69310;SDS011;56430;48.154;16.458;2023-11-19T09:14:51;5.72;;;2.50;;
69310;SDS011;56430;48.154;16.458;2023-11-19T09:17:18;4.77;;;2.07;;
69310;SDS011;56430;48.154;16.458;2023-11-19T09:19:45;4.60;;;2.00;;
69310;SDS011;56430;48.154;16.458;2023-11-19T09:22:13;5.82;;;2.35;;
69310;SDS011;56430;48.154;16.458;2023-11-19T09:24:40;6.63;;;2.28;;
69310;SDS011;56430;48.154;16.458;2023-11-19T09:27:09;5.28;;;2.28;;
69310;SDS011;56430;48.154;16.458;2023-11-19T09:29:37;3.60;;;1.70;;
69310;SDS011;56430;48.154;16.458;2023-11-19T09:32:04;4.88;;;2.10;;
69310;SDS011;56430;48.154;16.458;2023-11-19T09:34:33;4.20;;;2.00;;
69310;SDS011;56430;48.154;16.458;2023-11-19T09:37:00;5.45;;;1.85;;
69310;SDS011;56430;48.154;16.458;2023-11-19T09:39:29;4.05;;;1.50;;
69310;SDS011;56430;48.154;16.458;2023-11-19T09:41:56;4.23;;;1.97;;
69310;SDS011;56430;48.154;16.458;2023-11-19T09:44:23;4.55;;;1.95;;
69310;SDS011;56430;48.154;16.458;2023-11-19T09:46:50;5.13;;;1.73;;
69310;SDS011;56430;48.154;16.458;2023-11-19T09:49:20;4.70;;;1.90;;
69310;SDS011;56430;48.154;16.458;2023-11-19T09:51:48;4.15;;;1.30;;
69310;SDS011;56430;48.154;16.458;2023-11-19T09:54:16;3.73;;;1.60;;
69310;SDS011;56430;48.154;16.458;2023-11-19T09:56:44;5.53;;;1.75;;
69310;SDS011;56430;48.154;16.458;2023-11-19T09:59:12;3.38;;;1.33;;
69310;SDS011;56430;48.154;16.458;2023-11-19T10:01:39;4.65;;;1.85;;
69310;SDS011;56430;48.154;16.458;2023-11-19T10:04:06;3.83;;;1.42;;
69310;SDS011;56430;48.154;16.458;2023-11-19T10:06:34;8.37;;;2.60;;
69310;SDS011;56430;48.154;16.458;2023-11-19T10:09:01;4.65;;;2.33;;
69310;SDS011;56430;48.154;16.458;2023-11-19T10:11:30;5.32;;;1.75;;
69310;SDS011;56430;48.154;16.458;2023-11-19T10:13:59;4.10;;;1.63;;
69310;SDS011;56430;48.154;16.458;2023-11-19T10:16:28;3.95;;;1.40;;
69310;SDS011;56430;48.154;16.458;2023-11-19T10:18:56;4.67;;;1.63;;
69310;SDS011;56430;48.154;16.458;2023-11-19T10:21:23;4.00;;;1.60;;
69310;SDS011;56430;48.154;16.458;2023-11-19T10:23:53;4.38;;;1.30;;
69310;SDS011;56430;48.154;16.458;2023-11-19T10:26:22;5.68;;;1.88;;
69310;SDS011;56430;48.154;16.458;2023-11-19T10:28:50;4.55;;;1.60;;
69310;SDS011;56430;48.154;16.458;2023-11-19T10:31:19;4.20;;;1.70;;
69310;SDS011;56430;48.154;16.458;2023-11-19T10:33:50;4.35;;;1.73;;
69310;SDS011;56430;48.154;16.458;2023-11-19T10:36:17;4.15;;;1.80;;
69310;SDS011;56430;48.154;16.458;2023-11-19T10:38:51;4.63;;;1.73;;
69310;SDS011;56430;48.154;16.458;2023-11-19T10:41:29;5.88;;;2.30;;
69310;SDS011;56430;48.154;16.458;2023-11-19T10:43:56;4.90;;;2.00;;
69310;SDS011;56430;48.154;16.458;2023-11-19T10:46:35;4.15;;;1.90;;
69310;SDS011;56430;48.154;16.458;2023-11-19T10:49:03;6.82;;;2.00;;
69310;SDS011;56430;48.154;16.458;2023-11-19T10:51:32;5.07;;;1.85;;
69310;SDS011;56430;48.154;16.458;2023-11-19T10:54:01;4.97;;;1.80;;
69310;SDS011;56430;48.154;16.458;2023-11-19T10:56:31;6.63;;;2.30;;
69310;SDS011;56430;48.154;16.458;2023-11-19T10:58:59;6.18;;;2.22;;
69310;SDS011;56430;48.154;16.458;2023-11-19T11:01:29;5.63;;;2.10;;
69310;SDS011;56430;48.154;16.458;2023-11-19T11:04:00;4.88;;;2.13;;
69310;SDS011;56430;48.154;16.458;2023-11-19T11:06:29;5.72;;;2.17;;
69310;SDS011;56430;48.154;16.458;2023-11-19T11:08:57;5.03;;;2.37;;
69310;SDS011;56430;48.154;16.458;2023-11-19T11:11:25;4.75;;;2.13;;
69310;SDS011;56430;48.154;16.458;2023-11-19T11:13:52;5.43;;;2.33;;
69310;SDS011;56430;48.154;16.458;2023-11-19T11:16:20;5.93;;;2.45;;
69310;SDS011;56430;48.154;16.458;2023-11-19T11:18:50;6.07;;;2.55;;
69310;SDS011;56430;48.154;16.458;2023-11-19T11:21:20;6.27;;;2.90;;
69310;SDS011;56430;48.154;16.458;2023-11-19T11:24:06;6.45;;;2.70;;
69310;SDS011;56430;48.154;16.458;2023-11-19T11:26:56;8.10;;;3.75;;
69310;SDS011;56430;48.154;16.458;2023-11-19T11:29:34;9.25;;;2.92;;
69310;SDS011;56430;48.154;16.458;2023-11-19T11:32:06;10.40;;;4.20;;
69310;SDS011;56430;48.154;16.458;2023-11-19T11:34:47;8.63;;;3.20;;
69310;SDS011;56430;48.154;16.458;2023-11-19T11:37:21;12.10;;;4.00;;
69310;SDS011;56430;48.154;16.458;2023-11-19T11:39:52;11.93;;;4.88;;
69310;SDS011;56430;48.154;16.458;2023-11-19T11:42:35;10.52;;;4.57;;
69310;SDS011;56430;48.154;16.458;2023-11-19T11:45:04;9.85;;;4.20;;
69310;SDS011;56430;48.154;16.458;2023-11-19T11:50:35;9.77;;;3.80;;
69310;SDS011;56430;48.154;16.458;2023-11-19T11:53:18;7.82;;;3.58;;
69310;SDS011;56430;48.154;16.458;2023-11-19T11:55:52;8.57;;;3.78;;
69310;SDS011;56430;48.154;16.458;2023-11-19T11:58:22;8.73;;;3.67;;
69310;SDS011;56430;48.154;16.458;2023-11-19T12:00:52;8.20;;;3.97;;
69310;SDS011;56430;48.154;16.458;2023-11-19T12:03:19;7.50;;;3.28;;
69310;SDS011;56430;48.154;16.458;2023-11-19T12:05:49;10.25;;;4.13;;
69310;SDS011;56430;48.154;16.458;2023-11-19T12:08:18;10.68;;;4.22;;
69310;SDS011;56430;48.154;16.458;2023-11-19T12:10:47;9.02;;;3.85;;
69310;SDS011;56430;48.154;16.458;2023-11-19T12:13:16;11.40;;;4.83;;
69310;SDS011;56430;48.154;16.458;2023-11-19T12:18:36;9.18;;;4.18;;
69310;SDS011;56430;48.154;16.458;2023-11-19T12:21:07;10.23;;;4.45;;
69310;SDS011;56430;48.154;16.458;2023-11-19T12:23:43;9.80;;;4.28;;
69310;SDS011;56430;48.154;16.458;2023-11-19T12:29:00;9.73;;;4.13;;
69310;SDS011;56430;48.154;16.458;2023-11-19T12:31:29;9.40;;;4.30;;
69310;SDS011;56430;48.154;16.458;2023-11-19T12:33:57;8.68;;;4.03;;
69310;SDS011;56430;48.154;16.458;2023-11-19T12:36:27;9.27;;;4.28;;
69310;SDS011;56430;48.154;16.458;2023-11-19T12:38:54;10.67;;;4.07;;
69310;SDS011;56430;48.154;16.458;2023-11-19T12:41:21;12.10;;;4.70;;
69310;SDS011;56430;48.154;16.458;2023-11-19T12:43:49;9.63;;;4.00;;
69310;SDS011;56430;48.154;16.458;2023-11-19T12:46:17;8.85;;;4.05;;
69310;SDS011;56430;48.154;16.458;2023-11-19T12:48:45;9.30;;;4.43;;
69310;SDS011;56430;48.154;16.458;2023-11-19T12:51:12;11.00;;;4.57;;
69310;SDS011;56430;48.154;16.458;2023-11-19T12:53:50;9.75;;;4.07;;
69310;SDS011;56430;48.154;16.458;2023-11-19T12:56:20;9.63;;;4.15;;
69310;SDS011;56430;48.154;16.458;2023-11-19T12:58:47;9.18;;;4.32;;
69310;SDS011;56430;48.154;16.458;2023-11-19T13:01:15;8.80;;;3.53;;
69310;SDS011;56430;48.154;16.458;2023-11-19T13:03:43;8.27;;;3.60;;
69310;SDS011;56430;48.154;16.458;2023-11-19T13:06:12;9.93;;;4.65;;
69310;SDS011;56430;48.154;16.458;2023-11-19T13:08:41;10.32;;;4.43;;
69310;SDS011;56430;48.154;16.458;2023-11-19T13:11:11;9.15;;;4.63;;
69310;SDS011;56430;48.154;16.458;2023-11-19T13:13:54;9.90;;;4.47;;
69310;SDS011;56430;48.154;16.458;2023-11-19T13:16:22;9.10;;;3.87;;
69310;SDS011;56430;48.154;16.458;2023-11-19T13:18:49;11.63;;;4.13;;
69310;SDS011;56430;48.154;16.458;2023-11-19T13:21:17;11.52;;;4.22;;
69310;SDS011;56430;48.154;16.458;2023-11-19T13:23:44;11.00;;;4.72;;
69310;SDS011;56430;48.154;16.458;2023-11-19T13:26:13;10.82;;;5.05;;
69310;SDS011;56430;48.154;16.458;2023-11-19T13:28:40;13.33;;;4.77;;
69310;SDS011;56430;48.154;16.458;2023-11-19T13:31:07;9.13;;;4.57;;
69310;SDS011;56430;48.154;16.458;2023-11-19T13:33:36;11.32;;;4.35;;
69310;SDS011;56430;48.154;16.458;2023-11-19T13:36:03;10.10;;;4.22;;
69310;SDS011;56430;48.154;16.458;2023-11-19T13:38:33;8.40;;;4.15;;
69310;SDS011;56430;48.154;16.458;2023-11-19T13:41:00;9.70;;;4.23;;
69310;SDS011;56430;48.154;16.458;2023-11-19T13:43:29;10.25;;;4.00;;
69310;SDS011;56430;48.154;16.458;2023-11-19T13:45:56;11.27;;;4.93;;
69310;SDS011;56430;48.154;16.458;2023-11-19T13:48:24;9.38;;;4.30;;
69310;SDS011;56430;48.154;16.458;2023-11-19T13:50:52;11.50;;;4.22;;
69310;SDS011;56430;48.154;16.458;2023-11-19T13:53:19;11.40;;;4.07;;
69310;SDS011;56430;48.154;16.458;2023-11-19T13:55:46;9.73;;;4.60;;
69310;SDS011;56430;48.154;16.458;2023-11-19T13:58:14;10.18;;;4.53;;
69310;SDS011;56430;48.154;16.458;2023-11-19T14:00:42;8.70;;;3.97;;
69310;SDS011;56430;48.154;16.458;2023-11-19T14:03:10;11.15;;;4.57;;
69310;SDS011;56430;48.154;16.458;2023-11-19T14:05:37;9.30;;;4.43;;
69310;SDS011;56430;48.154;16.458;2023-11-19T14:08:04;9.48;;;4.15;;
69310;SDS011;56430;48.154;16.458;2023-11-19T14:10:37;9.02;;;3.95;;
69310;SDS011;56430;48.154;16.458;2023-11-19T14:13:06;10.70;;;4.82;;
69310;SDS011;56430;48.154;16.458;2023-11-19T14:15:33;9.50;;;4.50;;
69310;SDS011;56430;48.154;16.458;2023-11-19T14:18:02;10.93;;;4.93;;
69310;SDS011;56430;48.154;16.458;2023-11-19T14:20:29;10.30;;;4.50;;
69310;SDS011;56430;48.154;16.458;2023-11-19T14:22:56;8.68;;;4.50;;
69310;SDS011;56430;48.154;16.458;2023-11-19T14:25:23;9.63;;;4.22;;
69310;SDS011;56430;48.154;16.458;2023-11-19T14:27:51;9.65;;;4.05;;
69310;SDS011;56430;48.154;16.458;2023-11-19T14:30:18;9.27;;;4.17;;
69310;SDS011;56430;48.154;16.458;2023-11-19T14:32:45;9.43;;;4.00;;
69310;SDS011;56430;48.154;16.458;2023-11-19T14:35:14;11.80;;;5.03;;
69310;SDS011;56430;48.154;16.458;2023-11-19T14:37:41;12.32;;;5.05;;
69310;SDS011;56430;48.154;16.458;2023-11-19T14:40:10;9.15;;;4.28;;
69310;SDS011;56430;48.154;16.458;2023-11-19T14:42:38;12.83;;;4.67;;
69310;SDS011;56430;48.154;16.458;2023-11-19T14:45:06;11.07;;;4.10;;
69310;SDS011;56430;48.154;16.458;2023-11-19T14:47:37;11.70;;;4.57;;